sensor_id;sensor_type;location;lat;lon;timestamp;pressure;altitude;pressure_sealevel;temperature;humidity
73566;BME280;61846;52.970;-3.168;2023-04-15T00:00:29;100313.80;;;8.50;45.54
73566;BME280;61846;52.970;-3.168;2023-04-15T00:02:54;100313.65;;;8.91;44.73
73566;BME280;61846;52.970;-3.168;2023-04-15T00:05:20;100314.11;;;9.11;44.13
73566;BME280;61846;52.970;-3.168;2023-04-15T00:07:46;100313.48;;;9.20;43.65
73566;BME280;61846;52.970;-3.168;2023-04-15T00:10:11;100315.62;;;9.23;43.15
73566;BME280;61846;52.970;-3.168;2023-04-15T00:12:37;100316.77;;;8.93;43.59
73566;BME280;61846;52.970;-3.168;2023-04-15T00:15:03;100322.42;;;8.98;43.67
73566;BME280;61846;52.970;-3.168;2023-04-15T00:17:28;100327.03;;;9.02;43.41
73566;BME280;61846;52.970;-3.168;2023-04-15T00:19:53;100333.43;;;8.72;44.16
73566;BME280;61846;52.970;-3.168;2023-04-15T00:22:19;100335.32;;;8.50;44.14
73566;BME280;61846;52.970;-3.168;2023-04-15T00:24:45;100331.48;;;9.03;43.71
73566;BME280;61846;52.970;-3.168;2023-04-15T00:27:10;100334.76;;;8.77;43.93
73566;BME280;61846;52.970;-3.168;2023-04-15T00:29:36;100334.51;;;8.77;43.88
73566;BME280;61846;52.970;-3.168;2023-04-15T00:32:02;100340.84;;;9.08;43.39
73566;BME280;61846;52.970;-3.168;2023-04-15T00:34:27;100349.05;;;8.94;43.16
73566;BME280;61846;52.970;-3.168;2023-04-15T00:36:53;100353.81;;;9.16;43.10
73566;BME280;61846;52.970;-3.168;2023-04-15T00:39:19;100357.36;;;9.05;43.12
73566;BME280;61846;52.970;-3.168;2023-04-15T00:41:46;100362.49;;;9.22;42.86
73566;BME280;61846;52.970;-3.168;2023-04-15T00:44:09;100365.34;;;8.55;43.72
73566;BME280;61846;52.970;-3.168;2023-04-15T00:46:36;100364.93;;;9.10;43.08
73566;BME280;61846;52.970;-3.168;2023-04-15T00:49:00;100365.99;;;8.49;44.00
73566;BME280;61846;52.970;-3.168;2023-04-15T00:51:26;100369.71;;;8.85;43.07
73566;BME280;61846;52.970;-3.168;2023-04-15T00:53:51;100369.86;;;8.11;44.31
73566;BME280;61846;52.970;-3.168;2023-04-15T00:56:18;100371.67;;;8.29;44.04
73566;BME280;61846;52.970;-3.168;2023-04-15T00:58:42;100376.35;;;8.54;43.32
73566;BME280;61846;52.970;-3.168;2023-04-15T01:01:08;100380.48;;;8.88;42.88
73566;BME280;61846;52.970;-3.168;2023-04-15T01:03:33;100387.07;;;8.20;43.91
73566;BME280;61846;52.970;-3.168;2023-04-15T01:05:59;100386.22;;;8.57;43.37
73566;BME280;61846;52.970;-3.168;2023-04-15T01:08:26;100396.74;;;8.13;44.16
73566;BME280;61846;52.970;-3.168;2023-04-15T01:10:50;100398.68;;;8.07;44.25
73566;BME280;61846;52.970;-3.168;2023-04-15T01:13:16;100399.11;;;8.49;43.96
73566;BME280;61846;52.970;-3.168;2023-04-15T01:15:42;100401.29;;;8.23;44.06
73566;BME280;61846;52.970;-3.168;2023-04-15T01:18:07;100404.74;;;8.04;44.26
73566;BME280;61846;52.970;-3.168;2023-04-15T01:20:34;100411.46;;;7.62;45.37
73566;BME280;61846;52.970;-3.168;2023-04-15T01:22:59;100414.18;;;7.20;46.30
73566;BME280;61846;52.970;-3.168;2023-04-15T01:25:30;100413.43;;;8.27;44.94
73566;BME280;61846;52.970;-3.168;2023-04-15T01:27:50;100411.92;;;8.43;44.73
73566;BME280;61846;52.970;-3.168;2023-04-15T01:30:15;100414.51;;;7.73;45.57
73566;BME280;61846;52.970;-3.168;2023-04-15T01:32:41;100416.44;;;8.10;44.63
73566;BME280;61846;52.970;-3.168;2023-04-15T01:35:08;100416.47;;;8.34;43.90
73566;BME280;61846;52.970;-3.168;2023-04-15T01:37:33;100416.50;;;7.94;44.44
73566;BME280;61846;52.970;-3.168;2023-04-15T01:39:58;100421.37;;;6.99;46.66
73566;BME280;61846;52.970;-3.168;2023-04-15T01:42:24;100423.98;;;7.42;46.05
73566;BME280;61846;52.970;-3.168;2023-04-15T01:44:49;100423.71;;;8.25;44.66
73566;BME280;61846;52.970;-3.168;2023-04-15T01:47:15;100433.41;;;7.18;46.30
73566;BME280;61846;52.970;-3.168;2023-04-15T01:49:41;100433.73;;;7.34;45.70
73566;BME280;61846;52.970;-3.168;2023-04-15T01:52:06;100436.63;;;7.87;45.20
73566;BME280;61846;52.970;-3.168;2023-04-15T01:54:32;100442.13;;;7.64;45.19
73566;BME280;61846;52.970;-3.168;2023-04-15T01:56:58;100446.07;;;7.74;45.55
73566;BME280;61846;52.970;-3.168;2023-04-15T01:59:23;100448.50;;;6.74;47.43
73566;BME280;61846;52.970;-3.168;2023-04-15T02:01:49;100452.49;;;7.79;45.57
73566;BME280;61846;52.970;-3.168;2023-04-15T02:04:14;100454.87;;;8.17;44.75
73566;BME280;61846;52.970;-3.168;2023-04-15T02:06:40;100454.52;;;8.36;44.30
73566;BME280;61846;52.970;-3.168;2023-04-15T02:09:06;100458.50;;;7.82;44.71
73566;BME280;61846;52.970;-3.168;2023-04-15T02:11:32;100464.23;;;7.69;45.26
73566;BME280;61846;52.970;-3.168;2023-04-15T02:13:57;100466.28;;;7.74;44.56
73566;BME280;61846;52.970;-3.168;2023-04-15T02:16:23;100466.58;;;8.01;44.02
73566;BME280;61846;52.970;-3.168;2023-04-15T02:18:49;100472.75;;;8.23;43.89
73566;BME280;61846;52.970;-3.168;2023-04-15T02:21:14;100476.84;;;7.95;44.39
73566;BME280;61846;52.970;-3.168;2023-04-15T02:23:40;100478.88;;;8.03;43.74
73566;BME280;61846;52.970;-3.168;2023-04-15T02:26:06;100477.66;;;8.33;43.75
73566;BME280;61846;52.970;-3.168;2023-04-15T02:28:31;100483.27;;;7.84;44.02
73566;BME280;61846;52.970;-3.168;2023-04-15T02:30:57;100485.89;;;7.16;45.40
73566;BME280;61846;52.970;-3.168;2023-04-15T02:33:23;100486.64;;;6.78;46.28
73566;BME280;61846;52.970;-3.168;2023-04-15T02:35:49;100490.07;;;7.61;44.78
73566;BME280;61846;52.970;-3.168;2023-04-15T02:38:14;100491.27;;;7.95;44.52
73566;BME280;61846;52.970;-3.168;2023-04-15T02:40:39;100491.17;;;7.78;44.44
73566;BME280;61846;52.970;-3.168;2023-04-15T02:43:05;100492.11;;;7.72;44.27
73566;BME280;61846;52.970;-3.168;2023-04-15T02:45:31;100489.60;;;7.68;43.62
73566;BME280;61846;52.970;-3.168;2023-04-15T02:47:56;100493.04;;;7.92;43.52
73566;BME280;61846;52.970;-3.168;2023-04-15T02:50:22;100496.02;;;7.02;45.60
73566;BME280;61846;52.970;-3.168;2023-04-15T02:52:47;100499.47;;;6.52;46.06
73566;BME280;61846;52.970;-3.168;2023-04-15T02:55:13;100503.72;;;7.16;45.21
73566;BME280;61846;52.970;-3.168;2023-04-15T02:57:38;100509.92;;;7.50;44.92
73566;BME280;61846;52.970;-3.168;2023-04-15T03:00:05;100513.12;;;7.33;45.26
73566;BME280;61846;52.970;-3.168;2023-04-15T03:02:33;100513.91;;;7.13;45.17
73566;BME280;61846;52.970;-3.168;2023-04-15T03:04:55;100518.23;;;7.97;44.09
73566;BME280;61846;52.970;-3.168;2023-04-15T03:07:20;100522.02;;;6.77;45.47
73566;BME280;61846;52.970;-3.168;2023-04-15T03:09:45;100526.33;;;7.29;45.08
73566;BME280;61846;52.970;-3.168;2023-04-15T03:12:11;100524.31;;;6.74;45.61
73566;BME280;61846;52.970;-3.168;2023-04-15T03:14:36;100525.46;;;6.56;46.43
73566;BME280;61846;52.970;-3.168;2023-04-15T03:17:02;100529.50;;;7.03;45.31
73566;BME280;61846;52.970;-3.168;2023-04-15T03:19:28;100532.83;;;6.73;45.88
73566;BME280;61846;52.970;-3.168;2023-04-15T03:21:53;100541.04;;;7.25;44.74
73566;BME280;61846;52.970;-3.168;2023-04-15T03:24:19;100546.61;;;7.20;45.31
73566;BME280;61846;52.970;-3.168;2023-04-15T03:26:44;100553.30;;;7.58;44.75
73566;BME280;61846;52.970;-3.168;2023-04-15T03:29:10;100558.11;;;7.63;44.30
73566;BME280;61846;52.970;-3.168;2023-04-15T03:31:36;100562.57;;;6.57;46.15
73566;BME280;61846;52.970;-3.168;2023-04-15T03:34:01;100565.57;;;6.34;47.02
73566;BME280;61846;52.970;-3.168;2023-04-15T03:36:29;100564.86;;;6.65;45.97
73566;BME280;61846;52.970;-3.168;2023-04-15T03:38:53;100566.30;;;6.88;45.63
73566;BME280;61846;52.970;-3.168;2023-04-15T03:41:19;100565.05;;;6.65;46.43
73566;BME280;61846;52.970;-3.168;2023-04-15T03:43:44;100566.98;;;6.64;46.11
73566;BME280;61846;52.970;-3.168;2023-04-15T03:46:10;100572.55;;;7.64;44.77
73566;BME280;61846;52.970;-3.168;2023-04-15T03:48:36;100576.63;;;7.42;44.26
73566;BME280;61846;52.970;-3.168;2023-04-15T03:51:02;100580.85;;;7.54;44.21
73566;BME280;61846;52.970;-3.168;2023-04-15T03:53:27;100578.12;;;7.97;43.61
73566;BME280;61846;52.970;-3.168;2023-04-15T03:55:53;100581.24;;;7.59;43.91
73566;BME280;61846;52.970;-3.168;2023-04-15T03:58:19;100585.33;;;7.25;44.47
73566;BME280;61846;52.970;-3.168;2023-04-15T04:00:45;100586.19;;;7.92;43.62
73566;BME280;61846;52.970;-3.168;2023-04-15T04:03:10;100585.69;;;7.89;43.53
73566;BME280;61846;52.970;-3.168;2023-04-15T04:05:36;100588.56;;;7.93;43.33
73566;BME280;61846;52.970;-3.168;2023-04-15T04:08:02;100585.00;;;7.57;43.48
73566;BME280;61846;52.970;-3.168;2023-04-15T04:10:27;100586.36;;;6.81;44.27
73566;BME280;61846;52.970;-3.168;2023-04-15T04:12:53;100584.97;;;7.44;44.11
73566;BME280;61846;52.970;-3.168;2023-04-15T04:15:19;100586.47;;;7.53;43.86
73566;BME280;61846;52.970;-3.168;2023-04-15T04:17:45;100590.79;;;6.87;44.68
73566;BME280;61846;52.970;-3.168;2023-04-15T04:20:11;100593.96;;;7.42;43.86
73566;BME280;61846;52.970;-3.168;2023-04-15T04:22:37;100592.18;;;7.87;43.24
73566;BME280;61846;52.970;-3.168;2023-04-15T04:25:02;100596.19;;;7.12;44.37
73566;BME280;61846;52.970;-3.168;2023-04-15T04:27:28;100595.12;;;6.56;45.27
73566;BME280;61846;52.970;-3.168;2023-04-15T04:29:53;100597.61;;;7.01;44.89
73566;BME280;61846;52.970;-3.168;2023-04-15T04:32:19;100600.36;;;6.64;46.35
73566;BME280;61846;52.970;-3.168;2023-04-15T04:34:45;100601.39;;;6.82;46.35
73566;BME280;61846;52.970;-3.168;2023-04-15T04:37:10;100605.32;;;6.45;45.36
73566;BME280;61846;52.970;-3.168;2023-04-15T04:39:36;100607.52;;;7.31;43.78
73566;BME280;61846;52.970;-3.168;2023-04-15T04:42:02;100613.96;;;7.63;43.36
73566;BME280;61846;52.970;-3.168;2023-04-15T04:44:28;100621.23;;;6.95;44.65
73566;BME280;61846;52.970;-3.168;2023-04-15T04:46:53;100626.04;;;6.93;44.95
73566;BME280;61846;52.970;-3.168;2023-04-15T04:49:19;100626.26;;;7.08;44.65
73566;BME280;61846;52.970;-3.168;2023-04-15T04:51:45;100629.99;;;7.48;43.80
73566;BME280;61846;52.970;-3.168;2023-04-15T04:54:11;100637.44;;;7.34;43.92
73566;BME280;61846;52.970;-3.168;2023-04-15T04:56:36;100641.22;;;7.46;43.61
73566;BME280;61846;52.970;-3.168;2023-04-15T04:59:02;100647.66;;;6.77;45.05
73566;BME280;61846;52.970;-3.168;2023-04-15T05:01:28;100653.71;;;5.90;46.35
73566;BME280;61846;52.970;-3.168;2023-04-15T05:03:53;100657.61;;;7.15;45.36
73566;BME280;61846;52.970;-3.168;2023-04-15T05:06:19;100664.25;;;7.06;44.36
73566;BME280;61846;52.970;-3.168;2023-04-15T05:08:45;100667.36;;;6.39;45.70
73566;BME280;61846;52.970;-3.168;2023-04-15T05:11:11;100672.45;;;5.89;47.26
73566;BME280;61846;52.970;-3.168;2023-04-15T05:13:36;100679.64;;;6.16;46.44
73566;BME280;61846;52.970;-3.168;2023-04-15T05:16:02;100682.06;;;6.65;45.68
73566;BME280;61846;52.970;-3.168;2023-04-15T05:18:28;100686.42;;;6.38;46.06
73566;BME280;61846;52.970;-3.168;2023-04-15T05:20:54;100686.06;;;7.32;44.47
73566;BME280;61846;52.970;-3.168;2023-04-15T05:23:19;100690.15;;;7.09;44.84
73566;BME280;61846;52.970;-3.168;2023-04-15T05:25:45;100692.95;;;6.52;45.55
73566;BME280;61846;52.970;-3.168;2023-04-15T05:28:11;100694.21;;;7.03;45.07
73566;BME280;61846;52.970;-3.168;2023-04-15T05:30:37;100691.64;;;7.21;44.65
73566;BME280;61846;52.970;-3.168;2023-04-15T05:33:03;100695.51;;;7.22;44.85
73566;BME280;61846;52.970;-3.168;2023-04-15T05:35:28;100705.77;;;7.00;45.84
73566;BME280;61846;52.970;-3.168;2023-04-15T05:37:54;100712.38;;;6.54;46.33
73566;BME280;61846;52.970;-3.168;2023-04-15T05:40:19;100715.50;;;6.85;45.81
73566;BME280;61846;52.970;-3.168;2023-04-15T05:42:45;100719.52;;;6.70;46.17
73566;BME280;61846;52.970;-3.168;2023-04-15T05:45:11;100717.95;;;7.19;45.67
73566;BME280;61846;52.970;-3.168;2023-04-15T05:47:37;100723.32;;;6.76;46.50
73566;BME280;61846;52.970;-3.168;2023-04-15T05:50:03;100728.05;;;7.34;45.50
73566;BME280;61846;52.970;-3.168;2023-04-15T05:52:28;100735.22;;;6.38;47.27
73566;BME280;61846;52.970;-3.168;2023-04-15T05:54:54;100741.76;;;7.08;46.47
73566;BME280;61846;52.970;-3.168;2023-04-15T05:57:19;100746.08;;;7.29;45.73
73566;BME280;61846;52.970;-3.168;2023-04-15T05:59:45;100754.68;;;7.53;45.82
73566;BME280;61846;52.970;-3.168;2023-04-15T06:02:10;100761.61;;;7.21;46.76
73566;BME280;61846;52.970;-3.168;2023-04-15T06:04:36;100768.42;;;6.92;47.56
73566;BME280;61846;52.970;-3.168;2023-04-15T06:07:01;100773.44;;;7.41;46.32
73566;BME280;61846;52.970;-3.168;2023-04-15T06:09:27;100779.10;;;7.78;46.07
73566;BME280;61846;52.970;-3.168;2023-04-15T06:11:53;100781.94;;;6.60;48.98
73566;BME280;61846;52.970;-3.168;2023-04-15T06:14:19;100786.23;;;7.83;46.95
73566;BME280;61846;52.970;-3.168;2023-04-15T06:16:44;100790.31;;;8.00;46.20
73566;BME280;61846;52.970;-3.168;2023-04-15T06:19:10;100792.08;;;7.86;46.35
73566;BME280;61846;52.970;-3.168;2023-04-15T06:21:36;100801.40;;;7.70;46.73
73566;BME280;61846;52.970;-3.168;2023-04-15T06:24:01;100806.48;;;8.34;46.47
73566;BME280;61846;52.970;-3.168;2023-04-15T06:26:27;100808.70;;;8.65;45.88
73566;BME280;61846;52.970;-3.168;2023-04-15T06:28:52;100816.88;;;8.65;45.51
73566;BME280;61846;52.970;-3.168;2023-04-15T06:31:18;100824.80;;;8.48;46.37
73566;BME280;61846;52.970;-3.168;2023-04-15T06:33:43;100832.45;;;7.83;48.18
73566;BME280;61846;52.970;-3.168;2023-04-15T06:36:08;100836.91;;;7.65;48.24
73566;BME280;61846;52.970;-3.168;2023-04-15T06:38:34;100838.11;;;8.60;47.30
73566;BME280;61846;52.970;-3.168;2023-04-15T06:40:59;100839.17;;;8.51;47.15
73566;BME280;61846;52.970;-3.168;2023-04-15T06:43:24;100841.72;;;8.74;46.68
73566;BME280;61846;52.970;-3.168;2023-04-15T06:45:49;100844.56;;;9.33;46.10
73566;BME280;61846;52.970;-3.168;2023-04-15T06:48:15;100849.22;;;8.73;47.34
73566;BME280;61846;52.970;-3.168;2023-04-15T06:50:40;100850.37;;;9.17;47.02
73566;BME280;61846;52.970;-3.168;2023-04-15T06:53:06;100849.12;;;8.36;48.67
73566;BME280;61846;52.970;-3.168;2023-04-15T06:55:31;100853.67;;;8.28;48.34
73566;BME280;61846;52.970;-3.168;2023-04-15T06:57:57;100856.15;;;8.42;48.24
73566;BME280;61846;52.970;-3.168;2023-04-15T07:00:22;100854.65;;;9.10;46.82
73566;BME280;61846;52.970;-3.168;2023-04-15T07:02:48;100862.07;;;8.96;46.90
73566;BME280;61846;52.970;-3.168;2023-04-15T07:05:13;100868.46;;;8.71;48.13
73566;BME280;61846;52.970;-3.168;2023-04-15T07:07:38;100874.60;;;8.71;48.36
73566;BME280;61846;52.970;-3.168;2023-04-15T07:10:05;100875.36;;;9.61;46.95
73566;BME280;61846;52.970;-3.168;2023-04-15T07:12:29;100881.73;;;9.54;46.93
73566;BME280;61846;52.970;-3.168;2023-04-15T07:14:55;100884.26;;;10.05;46.31
73566;BME280;61846;52.970;-3.168;2023-04-15T07:17:20;100888.76;;;10.19;46.12
73566;BME280;61846;52.970;-3.168;2023-04-15T07:19:45;100890.59;;;10.01;47.05
73566;BME280;61846;52.970;-3.168;2023-04-15T07:22:10;100891.87;;;10.56;46.19
73566;BME280;61846;52.970;-3.168;2023-04-15T07:24:36;100892.88;;;10.17;47.23
73566;BME280;61846;52.970;-3.168;2023-04-15T07:27:02;100895.56;;;10.44;47.31
73566;BME280;61846;52.970;-3.168;2023-04-15T07:29:27;100893.93;;;10.20;48.44
73566;BME280;61846;52.970;-3.168;2023-04-15T07:31:53;100899.97;;;10.31;47.98
73566;BME280;61846;52.970;-3.168;2023-04-15T07:34:19;100902.70;;;10.71;47.63
73566;BME280;61846;52.970;-3.168;2023-04-15T07:36:44;100901.13;;;10.49;47.72
73566;BME280;61846;52.970;-3.168;2023-04-15T07:39:09;100902.05;;;10.81;46.30
73566;BME280;61846;52.970;-3.168;2023-04-15T07:41:35;100907.13;;;10.85;46.34
73566;BME280;61846;52.970;-3.168;2023-04-15T07:44:00;100914.13;;;10.22;47.52
73566;BME280;61846;52.970;-3.168;2023-04-15T07:46:26;100916.44;;;10.40;46.68
73566;BME280;61846;52.970;-3.168;2023-04-15T07:48:52;100923.81;;;10.41;46.39
73566;BME280;61846;52.970;-3.168;2023-04-15T07:51:18;100931.64;;;10.70;46.58
73566;BME280;61846;52.970;-3.168;2023-04-15T07:53:43;100933.11;;;11.03;46.08
73566;BME280;61846;52.970;-3.168;2023-04-15T07:56:09;100934.71;;;10.85;45.54
73566;BME280;61846;52.970;-3.168;2023-04-15T07:58:34;100938.02;;;10.94;45.20
73566;BME280;61846;52.970;-3.168;2023-04-15T08:01:00;100941.03;;;11.48;43.74
73566;BME280;61846;52.970;-3.168;2023-04-15T08:03:25;100937.88;;;12.12;42.39
73566;BME280;61846;52.970;-3.168;2023-04-15T08:05:51;100949.33;;;11.33;44.63
73566;BME280;61846;52.970;-3.168;2023-04-15T08:08:17;100954.16;;;11.36;44.23
73566;BME280;61846;52.970;-3.168;2023-04-15T08:10:42;100961.66;;;11.95;44.15
73566;BME280;61846;52.970;-3.168;2023-04-15T08:13:08;100966.28;;;11.76;43.86
73566;BME280;61846;52.970;-3.168;2023-04-15T08:15:33;100966.79;;;11.81;43.39
73566;BME280;61846;52.970;-3.168;2023-04-15T08:17:59;100967.23;;;11.61;43.33
73566;BME280;61846;52.970;-3.168;2023-04-15T08:20:24;100968.02;;;11.76;43.10
73566;BME280;61846;52.970;-3.168;2023-04-15T08:22:50;100961.85;;;12.43;41.91
73566;BME280;61846;52.970;-3.168;2023-04-15T08:25:15;100966.55;;;12.60;41.75
73566;BME280;61846;52.970;-3.168;2023-04-15T08:27:41;100969.08;;;12.59;41.06
73566;BME280;61846;52.970;-3.168;2023-04-15T08:30:08;100972.67;;;11.86;43.15
73566;BME280;61846;52.970;-3.168;2023-04-15T08:32:32;100975.48;;;12.34;40.64
73566;BME280;61846;52.970;-3.168;2023-04-15T08:34:57;100978.50;;;12.87;40.92
73566;BME280;61846;52.970;-3.168;2023-04-15T08:37:23;100984.09;;;13.15;40.76
73566;BME280;61846;52.970;-3.168;2023-04-15T08:39:48;100989.15;;;12.60;40.37
73566;BME280;61846;52.970;-3.168;2023-04-15T08:42:16;100993.77;;;13.40;40.03
73566;BME280;61846;52.970;-3.168;2023-04-15T08:44:40;100999.07;;;12.91;40.75
73566;BME280;61846;52.970;-3.168;2023-04-15T08:47:07;101002.50;;;13.08;41.29
73566;BME280;61846;52.970;-3.168;2023-04-15T08:49:31;101005.68;;;12.47;42.06
73566;BME280;61846;52.970;-3.168;2023-04-15T08:51:58;101005.68;;;13.34;40.06
73566;BME280;61846;52.970;-3.168;2023-04-15T08:54:22;101005.22;;;13.39;39.46
73566;BME280;61846;52.970;-3.168;2023-04-15T08:56:47;101008.92;;;13.87;38.62
73566;BME280;61846;52.970;-3.168;2023-04-15T08:59:13;101018.90;;;13.33;37.68
73566;BME280;61846;52.970;-3.168;2023-04-15T09:01:39;101021.43;;;14.12;36.56
73566;BME280;61846;52.970;-3.168;2023-04-15T09:04:05;101028.09;;;13.81;37.24
73566;BME280;61846;52.970;-3.168;2023-04-15T09:06:29;101035.31;;;12.85;45.02
73566;BME280;61846;52.970;-3.168;2023-04-15T09:08:55;101035.60;;;13.48;42.68
73566;BME280;61846;52.970;-3.168;2023-04-15T09:11:21;101037.41;;;12.94;41.69
73566;BME280;61846;52.970;-3.168;2023-04-15T09:13:45;101036.50;;;13.81;38.27
73566;BME280;61846;52.970;-3.168;2023-04-15T09:16:12;101044.37;;;13.62;38.74
73566;BME280;61846;52.970;-3.168;2023-04-15T09:18:37;101052.73;;;13.40;39.52
73566;BME280;61846;52.970;-3.168;2023-04-15T09:21:06;101052.69;;;13.78;38.54
73566;BME280;61846;52.970;-3.168;2023-04-15T09:23:28;101052.93;;;12.80;39.00
73566;BME280;61846;52.970;-3.168;2023-04-15T09:25:53;101052.81;;;13.97;37.98
73566;BME280;61846;52.970;-3.168;2023-04-15T09:28:23;101053.90;;;14.05;38.85
73566;BME280;61846;52.970;-3.168;2023-04-15T09:30:43;101056.35;;;13.85;39.04
73566;BME280;61846;52.970;-3.168;2023-04-15T09:33:09;101059.28;;;14.07;38.94
73566;BME280;61846;52.970;-3.168;2023-04-15T09:35:34;101062.45;;;13.65;38.99
73566;BME280;61846;52.970;-3.168;2023-04-15T09:38:02;101067.59;;;13.96;37.01
73566;BME280;61846;52.970;-3.168;2023-04-15T09:40:31;101069.88;;;14.20;36.55
73566;BME280;61846;52.970;-3.168;2023-04-15T09:42:54;101076.98;;;13.71;39.47
73566;BME280;61846;52.970;-3.168;2023-04-15T09:45:16;101076.33;;;12.81;40.03
73566;BME280;61846;52.970;-3.168;2023-04-15T09:47:41;101075.86;;;13.85;37.98
73566;BME280;61846;52.970;-3.168;2023-04-15T09:50:08;101078.94;;;14.68;37.47
73566;BME280;61846;52.970;-3.168;2023-04-15T09:52:33;101084.52;;;13.96;38.24
73566;BME280;61846;52.970;-3.168;2023-04-15T09:54:59;101086.52;;;14.16;36.38
73566;BME280;61846;52.970;-3.168;2023-04-15T09:57:24;101089.67;;;13.44;38.35
73566;BME280;61846;52.970;-3.168;2023-04-15T09:59:49;101087.89;;;14.31;36.54
73566;BME280;61846;52.970;-3.168;2023-04-15T10:02:15;101093.20;;;14.78;36.88
73566;BME280;61846;52.970;-3.168;2023-04-15T10:04:40;101091.94;;;15.34;35.87
73566;BME280;61846;52.970;-3.168;2023-04-15T10:07:07;101088.93;;;15.16;35.26
73566;BME280;61846;52.970;-3.168;2023-04-15T10:09:30;101092.09;;;14.61;35.98
73566;BME280;61846;52.970;-3.168;2023-04-15T10:11:56;101092.03;;;14.07;37.46
73566;BME280;61846;52.970;-3.168;2023-04-15T10:14:22;101089.13;;;14.74;37.39
73566;BME280;61846;52.970;-3.168;2023-04-15T10:16:48;101084.52;;;15.35;34.92
73566;BME280;61846;52.970;-3.168;2023-04-15T10:19:12;101085.03;;;15.04;35.99
73566;BME280;61846;52.970;-3.168;2023-04-15T10:21:38;101092.17;;;14.63;34.79
73566;BME280;61846;52.970;-3.168;2023-04-15T10:24:04;101093.59;;;15.60;33.60
73566;BME280;61846;52.970;-3.168;2023-04-15T10:26:29;101095.25;;;15.69;35.18
73566;BME280;61846;52.970;-3.168;2023-04-15T10:28:54;101097.54;;;15.60;35.18
73566;BME280;61846;52.970;-3.168;2023-04-15T10:31:20;101098.24;;;15.60;32.51
73566;BME280;61846;52.970;-3.168;2023-04-15T10:33:45;101099.29;;;15.26;35.31
73566;BME280;61846;52.970;-3.168;2023-04-15T10:36:10;101101.30;;;15.01;32.94
73566;BME280;61846;52.970;-3.168;2023-04-15T10:38:37;101104.16;;;15.56;35.64
73566;BME280;61846;52.970;-3.168;2023-04-15T10:41:13;101104.85;;;15.47;34.96
73566;BME280;61846;52.970;-3.168;2023-04-15T10:43:26;101108.58;;;15.75;31.47
73566;BME280;61846;52.970;-3.168;2023-04-15T10:45:52;101107.32;;;16.10;31.71
73566;BME280;61846;52.970;-3.168;2023-04-15T10:48:18;101110.07;;;15.86;31.96
73566;BME280;61846;52.970;-3.168;2023-04-15T10:53:09;101110.29;;;16.15;31.70
73566;BME280;61846;52.970;-3.168;2023-04-15T10:55:34;101109.45;;;16.48;31.33
73566;BME280;61846;52.970;-3.168;2023-04-15T10:58:01;101110.10;;;16.96;30.77
73566;BME280;61846;52.970;-3.168;2023-04-15T11:00:29;101112.78;;;16.76;31.71
73566;BME280;61846;52.970;-3.168;2023-04-15T11:02:53;101113.25;;;16.65;30.77
73566;BME280;61846;52.970;-3.168;2023-04-15T11:05:16;101115.64;;;14.64;32.33
73566;BME280;61846;52.970;-3.168;2023-04-15T11:07:47;101116.68;;;15.82;30.96
73566;BME280;61846;52.970;-3.168;2023-04-15T11:12:35;101115.99;;;17.02;28.61
73566;BME280;61846;52.970;-3.168;2023-04-15T11:14:57;101119.12;;;17.06;29.08
73566;BME280;61846;52.970;-3.168;2023-04-15T11:17:26;101120.41;;;16.53;28.72
73566;BME280;61846;52.970;-3.168;2023-04-15T11:19:47;101116.27;;;17.66;28.48
73566;BME280;61846;52.970;-3.168;2023-04-15T11:22:13;101114.18;;;17.65;28.64
73566;BME280;61846;52.970;-3.168;2023-04-15T11:24:46;101117.00;;;16.81;28.44
73566;BME280;61846;52.970;-3.168;2023-04-15T11:27:04;101120.49;;;14.79;30.63
73566;BME280;61846;52.970;-3.168;2023-04-15T11:29:30;101121.75;;;15.51;29.30
73566;BME280;61846;52.970;-3.168;2023-04-15T11:32:05;101123.13;;;15.90;28.55
73566;BME280;61846;52.970;-3.168;2023-04-15T11:34:22;101120.66;;;17.36;27.46
73566;BME280;61846;52.970;-3.168;2023-04-15T11:36:45;101125.16;;;13.21;31.75
73566;BME280;61846;52.970;-3.168;2023-04-15T11:39:11;101124.12;;;15.91;31.04
73566;BME280;61846;52.970;-3.168;2023-04-15T11:41:36;101124.52;;;16.66;31.99
73566;BME280;61846;52.970;-3.168;2023-04-15T11:44:01;101126.41;;;16.67;29.66
73566;BME280;61846;52.970;-3.168;2023-04-15T11:46:29;101128.60;;;16.60;28.91
73566;BME280;61846;52.970;-3.168;2023-04-15T11:48:52;101126.72;;;17.37;29.73
73566;BME280;61846;52.970;-3.168;2023-04-15T11:51:18;101131.08;;;16.79;30.41
73566;BME280;61846;52.970;-3.168;2023-04-15T11:53:44;101133.16;;;16.16;33.20
73566;BME280;61846;52.970;-3.168;2023-04-15T11:56:10;101132.08;;;17.75;28.31
73566;BME280;61846;52.970;-3.168;2023-04-15T11:58:35;101140.72;;;16.80;30.53
73566;BME280;61846;52.970;-3.168;2023-04-15T12:01:00;101142.03;;;16.79;30.16
73566;BME280;61846;52.970;-3.168;2023-04-15T12:03:26;101141.09;;;18.25;26.96
73566;BME280;61846;52.970;-3.168;2023-04-15T12:06:04;101140.15;;;18.45;29.13
73566;BME280;61846;52.970;-3.168;2023-04-15T12:08:15;101135.55;;;18.70;27.21
73566;BME280;61846;52.970;-3.168;2023-04-15T12:10:40;101145.51;;;16.49;29.15
73566;BME280;61846;52.970;-3.168;2023-04-15T12:13:06;101144.01;;;17.44;28.10
73566;BME280;61846;52.970;-3.168;2023-04-15T12:15:31;101145.72;;;18.63;27.70
73566;BME280;61846;52.970;-3.168;2023-04-15T12:17:56;101146.49;;;18.94;26.37
73566;BME280;61846;52.970;-3.168;2023-04-15T12:20:24;101153.98;;;18.10;27.76
73566;BME280;61846;52.970;-3.168;2023-04-15T12:22:47;101156.54;;;18.26;28.41
73566;BME280;61846;52.970;-3.168;2023-04-15T12:25:12;101160.86;;;17.40;28.72
73566;BME280;61846;52.970;-3.168;2023-04-15T12:27:37;101169.38;;;19.07;27.08
73566;BME280;61846;52.970;-3.168;2023-04-15T12:30:03;101168.85;;;18.08;28.34
73566;BME280;61846;52.970;-3.168;2023-04-15T12:32:27;101167.71;;;17.29;27.42
73566;BME280;61846;52.970;-3.168;2023-04-15T12:34:53;101167.77;;;17.70;27.29
73566;BME280;61846;52.970;-3.168;2023-04-15T12:37:18;101168.43;;;17.93;28.72
73566;BME280;61846;52.970;-3.168;2023-04-15T12:39:45;101169.86;;;18.78;28.43